Accueil
METAR-TAF:

METAR-TAF

Aéroports :

Aéroport de Gérone-Costa Brava

Gérone, Espagne

latitude: 41-54N, longitude: 002-46E, altitude: 143 m

Observation

Le bulletin a été fait il y a 36 minutes, à 14:30 UTC
Vent 6 kt de sud
Température 20°C
Humidité 53%
Pression 1019 hPa
Visibilité 10 km ou plus
Quelques nuages à une hauteur de 6000 ft

METAR: LEGE 281430Z 17006KT 9999 FEW060 20/10 Q1019

Heure: 16:06 (15:06 UTC)

Prévision

Le bulletin a été fait il y a 4 heures et 6 minutes, à 11:00 UTC
Prévision valable du 28 à 12 UTC au 29 à 12 UTC
Vent 4 kt de direction variable
Visibilité 10 km ou plus
Quelques nuages à une hauteur de 2500 ft
Temporairement
du 28 à 13 UTC au 28 à 17 UTC
Vent 8 kt de sud
Probabilité 30% :
Temporairement
du 29 à 02 UTC au 29 à 07 UTC
Visibilité: 3000 m
brume

TAF: LEGE 281100Z 2812/2912 VRB04KT 9999 FEW025 TX23/2814Z TN10/2906Z TEMPO 2813/2817 18008KT PROB30 TEMPO 2902/2907 3000 BR

Observations et prévisions météorologiques de plus de 4000 aéroports (messages METAR et TAF).

Les stations disponibles sont représentées par des disques jaunes et rouges sur la carte.

Passer la souris dessus pour voir le nom de la station.

Cliquer dessus pour voir les observations et prévisions météorologiques.

Pour changer de carte: cliquez sur les boutons verts avec une croix noire pour zoomer, sur le bouton vert avec un tiret pour effectuer un zoom arrière, ou sur les flèches vertes pour les cartes adjacentes.


METAR-TAF: